sensor_id;sensor_type;location;lat;lon;timestamp;P1;durP1;ratioP1;P2;durP2;ratioP2
66597;SDS011;57424;53.128;6.406;2023-04-24T00:01:11;2.08;;;1.30;;
66597;SDS011;57424;53.128;6.406;2023-04-24T00:03:38;2.25;;;1.55;;
66597;SDS011;57424;53.128;6.406;2023-04-24T00:06:04;3.10;;;1.60;;
66597;SDS011;57424;53.128;6.406;2023-04-24T00:08:33;2.38;;;1.20;;
66597;SDS011;57424;53.128;6.406;2023-04-24T00:10:59;2.78;;;1.20;;
66597;SDS011;57424;53.128;6.406;2023-04-24T00:13:25;2.67;;;1.38;;
66597;SDS011;57424;53.128;6.406;2023-04-24T00:15:51;2.00;;;1.20;;
66597;SDS011;57424;53.128;6.406;2023-04-24T00:18:16;2.13;;;1.30;;
66597;SDS011;57424;53.128;6.406;2023-04-24T00:20:42;2.38;;;1.20;;
66597;SDS011;57424;53.128;6.406;2023-04-24T00:23:08;1.90;;;1.33;;
66597;SDS011;57424;53.128;6.406;2023-04-24T00:25:34;1.67;;;1.20;;
66597;SDS011;57424;53.128;6.406;2023-04-24T00:28:00;1.33;;;1.10;;
66597;SDS011;57424;53.128;6.406;2023-04-24T00:30:25;2.42;;;1.30;;
66597;SDS011;57424;53.128;6.406;2023-04-24T00:32:51;2.08;;;1.23;;
66597;SDS011;57424;53.128;6.406;2023-04-24T00:35:16;2.75;;;1.45;;
66597;SDS011;57424;53.128;6.406;2023-04-24T00:37:44;2.75;;;1.38;;
66597;SDS011;57424;53.128;6.406;2023-04-24T00:40:10;2.58;;;1.20;;
66597;SDS011;57424;53.128;6.406;2023-04-24T00:42:36;1.90;;;1.50;;
66597;SDS011;57424;53.128;6.406;2023-04-24T00:45:02;2.83;;;1.50;;
66597;SDS011;57424;53.128;6.406;2023-04-24T00:47:28;1.15;;;1.05;;
66597;SDS011;57424;53.128;6.406;2023-04-24T00:49:54;2.47;;;1.40;;
66597;SDS011;57424;53.128;6.406;2023-04-24T00:52:20;2.47;;;1.33;;
66597;SDS011;57424;53.128;6.406;2023-04-24T00:54:49;2.50;;;1.30;;
66597;SDS011;57424;53.128;6.406;2023-04-24T00:57:15;3.15;;;1.50;;
66597;SDS011;57424;53.128;6.406;2023-04-24T00:59:41;1.73;;;1.17;;
66597;SDS011;57424;53.128;6.406;2023-04-24T01:02:08;2.38;;;1.33;;
66597;SDS011;57424;53.128;6.406;2023-04-24T01:04:35;3.22;;;1.30;;
66597;SDS011;57424;53.128;6.406;2023-04-24T01:07:01;2.58;;;1.45;;
66597;SDS011;57424;53.128;6.406;2023-04-24T01:09:27;2.67;;;1.15;;
66597;SDS011;57424;53.128;6.406;2023-04-24T01:11:52;2.25;;;1.10;;
66597;SDS011;57424;53.128;6.406;2023-04-24T01:14:18;1.98;;;1.13;;
66597;SDS011;57424;53.128;6.406;2023-04-24T01:16:45;1.30;;;1.10;;
66597;SDS011;57424;53.128;6.406;2023-04-24T01:19:11;0.98;;;0.88;;
66597;SDS011;57424;53.128;6.406;2023-04-24T01:21:37;2.30;;;1.35;;
66597;SDS011;57424;53.128;6.406;2023-04-24T01:24:04;1.52;;;1.00;;
66597;SDS011;57424;53.128;6.406;2023-04-24T01:26:31;1.77;;;1.10;;
66597;SDS011;57424;53.128;6.406;2023-04-24T01:28:56;1.33;;;1.10;;
66597;SDS011;57424;53.128;6.406;2023-04-24T01:31:22;1.80;;;1.10;;
66597;SDS011;57424;53.128;6.406;2023-04-24T01:33:49;2.33;;;1.10;;
66597;SDS011;57424;53.128;6.406;2023-04-24T01:36:15;1.52;;;1.00;;
66597;SDS011;57424;53.128;6.406;2023-04-24T01:38:42;1.45;;;1.10;;
66597;SDS011;57424;53.128;6.406;2023-04-24T01:41:08;1.60;;;1.00;;
66597;SDS011;57424;53.128;6.406;2023-04-24T01:43:34;1.02;;;0.85;;
66597;SDS011;57424;53.128;6.406;2023-04-24T01:46:00;2.00;;;1.10;;
66597;SDS011;57424;53.128;6.406;2023-04-24T01:48:25;2.55;;;1.40;;
66597;SDS011;57424;53.128;6.406;2023-04-24T01:50:51;1.27;;;1.02;;
66597;SDS011;57424;53.128;6.406;2023-04-24T01:53:17;1.58;;;1.20;;
66597;SDS011;57424;53.128;6.406;2023-04-24T01:55:43;2.33;;;1.42;;
66597;SDS011;57424;53.128;6.406;2023-04-24T01:58:08;1.45;;;1.00;;
66597;SDS011;57424;53.128;6.406;2023-04-24T02:00:34;2.00;;;1.02;;
66597;SDS011;57424;53.128;6.406;2023-04-24T02:03:00;0.90;;;0.90;;
66597;SDS011;57424;53.128;6.406;2023-04-24T02:05:26;1.70;;;1.13;;
66597;SDS011;57424;53.128;6.406;2023-04-24T02:07:52;1.42;;;1.00;;
66597;SDS011;57424;53.128;6.406;2023-04-24T02:10:18;0.95;;;0.88;;
66597;SDS011;57424;53.128;6.406;2023-04-24T02:12:43;1.23;;;1.00;;
66597;SDS011;57424;53.128;6.406;2023-04-24T02:15:09;1.60;;;1.20;;
66597;SDS011;57424;53.128;6.406;2023-04-24T02:17:35;1.17;;;1.00;;
66597;SDS011;57424;53.128;6.406;2023-04-24T02:20:01;0.70;;;0.70;;
66597;SDS011;57424;53.128;6.406;2023-04-24T02:22:27;0.82;;;0.80;;
66597;SDS011;57424;53.128;6.406;2023-04-24T02:24:52;1.58;;;1.08;;
66597;SDS011;57424;53.128;6.406;2023-04-24T02:27:18;1.92;;;1.00;;
66597;SDS011;57424;53.128;6.406;2023-04-24T02:29:44;1.25;;;1.10;;
66597;SDS011;57424;53.128;6.406;2023-04-24T02:32:09;1.00;;;0.90;;
66597;SDS011;57424;53.128;6.406;2023-04-24T02:34:37;1.30;;;0.70;;
66597;SDS011;57424;53.128;6.406;2023-04-24T02:37:03;1.08;;;0.88;;
66597;SDS011;57424;53.128;6.406;2023-04-24T02:39:28;1.15;;;0.98;;
66597;SDS011;57424;53.128;6.406;2023-04-24T02:41:54;1.83;;;0.98;;
66597;SDS011;57424;53.128;6.406;2023-04-24T02:44:20;1.13;;;0.88;;
66597;SDS011;57424;53.128;6.406;2023-04-24T02:46:47;1.35;;;0.80;;
66597;SDS011;57424;53.128;6.406;2023-04-24T02:49:13;1.77;;;0.90;;
66597;SDS011;57424;53.128;6.406;2023-04-24T02:51:38;0.80;;;0.80;;
66597;SDS011;57424;53.128;6.406;2023-04-24T02:54:06;0.77;;;0.77;;
66597;SDS011;57424;53.128;6.406;2023-04-24T02:56:33;0.97;;;0.80;;
66597;SDS011;57424;53.128;6.406;2023-04-24T02:58:58;0.98;;;0.88;;
66597;SDS011;57424;53.128;6.406;2023-04-24T03:01:24;1.30;;;1.05;;
66597;SDS011;57424;53.128;6.406;2023-04-24T03:03:50;0.85;;;0.65;;
66597;SDS011;57424;53.128;6.406;2023-04-24T03:06:15;1.10;;;1.00;;
66597;SDS011;57424;53.128;6.406;2023-04-24T03:08:41;0.82;;;0.70;;
66597;SDS011;57424;53.128;6.406;2023-04-24T03:11:06;2.30;;;1.10;;
66597;SDS011;57424;53.128;6.406;2023-04-24T03:13:32;1.08;;;0.77;;
66597;SDS011;57424;53.128;6.406;2023-04-24T03:15:58;0.90;;;0.80;;
66597;SDS011;57424;53.128;6.406;2023-04-24T03:18:23;0.65;;;0.65;;
66597;SDS011;57424;53.128;6.406;2023-04-24T03:20:49;1.00;;;0.90;;
66597;SDS011;57424;53.128;6.406;2023-04-24T03:23:15;1.13;;;0.80;;
66597;SDS011;57424;53.128;6.406;2023-04-24T03:25:40;1.48;;;1.00;;
66597;SDS011;57424;53.128;6.406;2023-04-24T03:28:07;1.25;;;0.77;;
66597;SDS011;57424;53.128;6.406;2023-04-24T03:30:33;1.05;;;0.70;;
66597;SDS011;57424;53.128;6.406;2023-04-24T03:32:59;0.80;;;0.73;;
66597;SDS011;57424;53.128;6.406;2023-04-24T03:35:25;0.90;;;0.73;;
66597;SDS011;57424;53.128;6.406;2023-04-24T03:37:51;2.00;;;0.57;;
66597;SDS011;57424;53.128;6.406;2023-04-24T03:40:16;1.80;;;0.70;;
66597;SDS011;57424;53.128;6.406;2023-04-24T03:42:42;0.80;;;0.80;;
66597;SDS011;57424;53.128;6.406;2023-04-24T03:45:08;1.10;;;0.73;;
66597;SDS011;57424;53.128;6.406;2023-04-24T03:47:34;0.85;;;0.82;;
66597;SDS011;57424;53.128;6.406;2023-04-24T03:49:59;1.00;;;0.80;;
66597;SDS011;57424;53.128;6.406;2023-04-24T03:52:25;0.93;;;0.82;;
66597;SDS011;57424;53.128;6.406;2023-04-24T03:54:51;0.90;;;0.80;;
66597;SDS011;57424;53.128;6.406;2023-04-24T03:57:16;0.70;;;0.70;;
66597;SDS011;57424;53.128;6.406;2023-04-24T03:59:42;1.00;;;0.90;;
66597;SDS011;57424;53.128;6.406;2023-04-24T04:02:07;0.85;;;0.80;;
66597;SDS011;57424;53.128;6.406;2023-04-24T04:04:33;0.70;;;0.70;;
66597;SDS011;57424;53.128;6.406;2023-04-24T04:06:59;0.55;;;0.55;;
66597;SDS011;57424;53.128;6.406;2023-04-24T04:09:28;1.00;;;0.90;;
66597;SDS011;57424;53.128;6.406;2023-04-24T04:11:53;0.70;;;0.70;;
66597;SDS011;57424;53.128;6.406;2023-04-24T04:14:20;1.02;;;0.70;;
66597;SDS011;57424;53.128;6.406;2023-04-24T04:16:46;1.00;;;0.90;;
66597;SDS011;57424;53.128;6.406;2023-04-24T04:19:12;0.70;;;0.70;;
66597;SDS011;57424;53.128;6.406;2023-04-24T04:21:37;0.70;;;0.70;;
66597;SDS011;57424;53.128;6.406;2023-04-24T04:24:03;1.63;;;0.93;;
66597;SDS011;57424;53.128;6.406;2023-04-24T04:26:30;1.63;;;0.80;;
66597;SDS011;57424;53.128;6.406;2023-04-24T04:28:57;0.90;;;0.63;;
66597;SDS011;57424;53.128;6.406;2023-04-24T04:31:23;0.90;;;0.90;;
66597;SDS011;57424;53.128;6.406;2023-04-24T04:33:49;1.40;;;0.95;;
66597;SDS011;57424;53.128;6.406;2023-04-24T04:36:15;1.00;;;0.70;;
66597;SDS011;57424;53.128;6.406;2023-04-24T04:38:42;0.82;;;0.70;;
66597;SDS011;57424;53.128;6.406;2023-04-24T04:41:07;0.85;;;0.65;;
66597;SDS011;57424;53.128;6.406;2023-04-24T04:43:33;0.88;;;0.80;;
66597;SDS011;57424;53.128;6.406;2023-04-24T04:45:59;0.85;;;0.60;;
66597;SDS011;57424;53.128;6.406;2023-04-24T04:48:26;0.70;;;0.70;;
66597;SDS011;57424;53.128;6.406;2023-04-24T04:50:52;0.93;;;0.82;;
66597;SDS011;57424;53.128;6.406;2023-04-24T04:53:17;1.20;;;0.75;;
66597;SDS011;57424;53.128;6.406;2023-04-24T04:55:43;0.80;;;0.70;;
66597;SDS011;57424;53.128;6.406;2023-04-24T04:58:09;0.60;;;0.60;;
66597;SDS011;57424;53.128;6.406;2023-04-24T05:00:34;0.50;;;0.50;;
66597;SDS011;57424;53.128;6.406;2023-04-24T05:03:02;0.77;;;0.55;;
66597;SDS011;57424;53.128;6.406;2023-04-24T05:05:28;0.70;;;0.70;;
66597;SDS011;57424;53.128;6.406;2023-04-24T05:07:54;0.70;;;0.70;;
66597;SDS011;57424;53.128;6.406;2023-04-24T05:10:20;0.63;;;0.60;;
66597;SDS011;57424;53.128;6.406;2023-04-24T05:12:45;1.27;;;0.77;;
66597;SDS011;57424;53.128;6.406;2023-04-24T05:15:11;0.70;;;0.70;;
66597;SDS011;57424;53.128;6.406;2023-04-24T05:17:36;0.60;;;0.60;;
66597;SDS011;57424;53.128;6.406;2023-04-24T05:20:04;0.50;;;0.50;;
66597;SDS011;57424;53.128;6.406;2023-04-24T05:22:31;0.55;;;0.55;;
66597;SDS011;57424;53.128;6.406;2023-04-24T05:24:56;0.93;;;0.60;;
66597;SDS011;57424;53.128;6.406;2023-04-24T05:27:22;0.75;;;0.60;;
66597;SDS011;57424;53.128;6.406;2023-04-24T05:29:48;0.70;;;0.70;;
66597;SDS011;57424;53.128;6.406;2023-04-24T05:32:13;0.63;;;0.45;;
66597;SDS011;57424;53.128;6.406;2023-04-24T05:34:39;1.42;;;0.75;;
66597;SDS011;57424;53.128;6.406;2023-04-24T05:37:04;1.23;;;0.60;;
66597;SDS011;57424;53.128;6.406;2023-04-24T05:39:33;0.57;;;0.52;;
66597;SDS011;57424;53.128;6.406;2023-04-24T05:41:59;0.70;;;0.70;;
66597;SDS011;57424;53.128;6.406;2023-04-24T05:44:26;0.87;;;0.77;;
66597;SDS011;57424;53.128;6.406;2023-04-24T05:46:52;0.60;;;0.60;;
66597;SDS011;57424;53.128;6.406;2023-04-24T05:49:18;0.50;;;0.50;;
66597;SDS011;57424;53.128;6.406;2023-04-24T05:51:43;0.77;;;0.50;;
66597;SDS011;57424;53.128;6.406;2023-04-24T05:54:09;0.60;;;0.60;;
66597;SDS011;57424;53.128;6.406;2023-04-24T05:56:37;0.50;;;0.47;;
66597;SDS011;57424;53.128;6.406;2023-04-24T05:59:02;0.45;;;0.45;;
66597;SDS011;57424;53.128;6.406;2023-04-24T06:01:28;0.70;;;0.50;;
66597;SDS011;57424;53.128;6.406;2023-04-24T06:03:54;0.70;;;0.70;;
66597;SDS011;57424;53.128;6.406;2023-04-24T06:06:20;0.77;;;0.60;;
66597;SDS011;57424;53.128;6.406;2023-04-24T06:08:46;0.60;;;0.60;;
66597;SDS011;57424;53.128;6.406;2023-04-24T06:11:11;0.50;;;0.50;;
66597;SDS011;57424;53.128;6.406;2023-04-24T06:13:37;0.60;;;0.60;;
66597;SDS011;57424;53.128;6.406;2023-04-24T06:16:02;1.27;;;0.60;;
66597;SDS011;57424;53.128;6.406;2023-04-24T06:18:29;0.90;;;0.60;;
66597;SDS011;57424;53.128;6.406;2023-04-24T06:20:55;0.60;;;0.60;;
66597;SDS011;57424;53.128;6.406;2023-04-24T06:23:21;0.60;;;0.60;;
66597;SDS011;57424;53.128;6.406;2023-04-24T06:25:46;0.60;;;0.60;;
66597;SDS011;57424;53.128;6.406;2023-04-24T06:28:12;0.52;;;0.52;;
66597;SDS011;57424;53.128;6.406;2023-04-24T06:30:37;0.47;;;0.43;;
66597;SDS011;57424;53.128;6.406;2023-04-24T06:33:03;0.50;;;0.47;;
66597;SDS011;57424;53.128;6.406;2023-04-24T06:35:28;0.50;;;0.50;;
66597;SDS011;57424;53.128;6.406;2023-04-24T06:37:54;0.88;;;0.70;;
66597;SDS011;57424;53.128;6.406;2023-04-24T06:40:21;0.85;;;0.70;;
66597;SDS011;57424;53.128;6.406;2023-04-24T06:42:47;0.50;;;0.50;;
66597;SDS011;57424;53.128;6.406;2023-04-24T06:45:12;0.77;;;0.60;;
66597;SDS011;57424;53.128;6.406;2023-04-24T06:47:38;0.60;;;0.55;;
66597;SDS011;57424;53.128;6.406;2023-04-24T06:50:03;0.80;;;0.60;;
66597;SDS011;57424;53.128;6.406;2023-04-24T06:52:29;1.50;;;0.65;;
66597;SDS011;57424;53.128;6.406;2023-04-24T06:57:27;0.68;;;0.60;;
66597;SDS011;57424;53.128;6.406;2023-04-24T06:59:53;2.15;;;0.60;;
66597;SDS011;57424;53.128;6.406;2023-04-24T07:02:20;0.83;;;0.50;;
66597;SDS011;57424;53.128;6.406;2023-04-24T07:04:46;3.05;;;0.60;;
66597;SDS011;57424;53.128;6.406;2023-04-24T07:07:12;0.60;;;0.60;;
66597;SDS011;57424;53.128;6.406;2023-04-24T07:09:39;1.77;;;0.60;;
66597;SDS011;57424;53.128;6.406;2023-04-24T07:12:09;1.08;;;0.77;;
66597;SDS011;57424;53.128;6.406;2023-04-24T07:14:35;0.82;;;0.65;;
66597;SDS011;57424;53.128;6.406;2023-04-24T07:17:02;0.60;;;0.60;;
66597;SDS011;57424;53.128;6.406;2023-04-24T07:19:28;0.90;;;0.60;;
66597;SDS011;57424;53.128;6.406;2023-04-24T07:21:54;0.57;;;0.57;;
66597;SDS011;57424;53.128;6.406;2023-04-24T07:24:20;0.80;;;0.60;;
66597;SDS011;57424;53.128;6.406;2023-04-24T07:26:46;3.15;;;0.60;;
66597;SDS011;57424;53.128;6.406;2023-04-24T07:29:11;2.50;;;0.77;;
66597;SDS011;57424;53.128;6.406;2023-04-24T07:31:38;2.22;;;0.65;;
66597;SDS011;57424;53.128;6.406;2023-04-24T07:34:05;1.27;;;0.65;;
66597;SDS011;57424;53.128;6.406;2023-04-24T07:36:31;2.22;;;0.77;;
66597;SDS011;57424;53.128;6.406;2023-04-24T07:38:57;1.27;;;0.50;;
66597;SDS011;57424;53.128;6.406;2023-04-24T07:41:22;0.82;;;0.80;;
66597;SDS011;57424;53.128;6.406;2023-04-24T07:43:49;2.53;;;0.70;;
66597;SDS011;57424;53.128;6.406;2023-04-24T07:46:14;1.45;;;0.65;;
66597;SDS011;57424;53.128;6.406;2023-04-24T07:48:40;1.27;;;0.60;;
66597;SDS011;57424;53.128;6.406;2023-04-24T07:51:06;1.58;;;0.75;;
66597;SDS011;57424;53.128;6.406;2023-04-24T07:53:31;2.03;;;0.88;;
66597;SDS011;57424;53.128;6.406;2023-04-24T07:55:57;2.17;;;0.88;;
66597;SDS011;57424;53.128;6.406;2023-04-24T07:58:23;2.13;;;0.85;;
66597;SDS011;57424;53.128;6.406;2023-04-24T08:00:48;1.02;;;0.77;;
66597;SDS011;57424;53.128;6.406;2023-04-24T08:03:14;1.10;;;1.02;;
66597;SDS011;57424;53.128;6.406;2023-04-24T08:05:43;2.60;;;1.00;;
66597;SDS011;57424;53.128;6.406;2023-04-24T08:08:08;3.17;;;1.00;;
66597;SDS011;57424;53.128;6.406;2023-04-24T08:10:34;1.45;;;1.00;;
66597;SDS011;57424;53.128;6.406;2023-04-24T08:12:59;4.15;;;1.30;;
66597;SDS011;57424;53.128;6.406;2023-04-24T08:15:27;5.50;;;1.35;;
66597;SDS011;57424;53.128;6.406;2023-04-24T08:17:53;3.22;;;1.10;;
66597;SDS011;57424;53.128;6.406;2023-04-24T08:20:18;6.35;;;1.30;;
66597;SDS011;57424;53.128;6.406;2023-04-24T08:22:44;8.02;;;1.40;;
66597;SDS011;57424;53.128;6.406;2023-04-24T08:25:12;3.67;;;1.52;;
66597;SDS011;57424;53.128;6.406;2023-04-24T08:27:37;1.27;;;1.13;;
66597;SDS011;57424;53.128;6.406;2023-04-24T08:30:04;3.70;;;1.70;;
66597;SDS011;57424;53.128;6.406;2023-04-24T08:32:30;5.78;;;1.80;;
66597;SDS011;57424;53.128;6.406;2023-04-24T08:34:56;5.88;;;2.00;;
66597;SDS011;57424;53.128;6.406;2023-04-24T08:37:23;5.55;;;1.70;;
66597;SDS011;57424;53.128;6.406;2023-04-24T08:39:49;3.50;;;1.50;;
66597;SDS011;57424;53.128;6.406;2023-04-24T08:42:15;8.27;;;1.80;;
66597;SDS011;57424;53.128;6.406;2023-04-24T08:44:42;6.20;;;2.00;;
66597;SDS011;57424;53.128;6.406;2023-04-24T08:47:09;6.30;;;1.70;;
66597;SDS011;57424;53.128;6.406;2023-04-24T08:49:36;3.85;;;1.73;;
66597;SDS011;57424;53.128;6.406;2023-04-24T08:52:03;3.47;;;1.90;;
66597;SDS011;57424;53.128;6.406;2023-04-24T08:54:29;4.32;;;2.20;;
66597;SDS011;57424;53.128;6.406;2023-04-24T08:56:58;1.92;;;1.73;;
66597;SDS011;57424;53.128;6.406;2023-04-24T08:59:26;3.15;;;1.65;;
66597;SDS011;57424;53.128;6.406;2023-04-24T09:01:52;4.05;;;1.80;;
66597;SDS011;57424;53.128;6.406;2023-04-24T09:04:20;3.75;;;2.17;;
66597;SDS011;57424;53.128;6.406;2023-04-24T09:06:48;2.63;;;1.80;;
66597;SDS011;57424;53.128;6.406;2023-04-24T09:09:14;3.17;;;1.58;;
66597;SDS011;57424;53.128;6.406;2023-04-24T09:11:42;3.88;;;1.92;;
66597;SDS011;57424;53.128;6.406;2023-04-24T09:14:08;3.38;;;1.75;;
66597;SDS011;57424;53.128;6.406;2023-04-24T09:16:34;3.50;;;2.03;;
66597;SDS011;57424;53.128;6.406;2023-04-24T09:19:00;2.47;;;1.48;;
66597;SDS011;57424;53.128;6.406;2023-04-24T09:21:30;4.75;;;1.92;;
66597;SDS011;57424;53.128;6.406;2023-04-24T09:23:59;3.05;;;1.90;;
66597;SDS011;57424;53.128;6.406;2023-04-24T09:26:25;2.63;;;1.98;;
66597;SDS011;57424;53.128;6.406;2023-04-24T09:31:19;2.60;;;1.50;;
66597;SDS011;57424;53.128;6.406;2023-04-24T09:33:57;2.83;;;1.73;;
66597;SDS011;57424;53.128;6.406;2023-04-24T09:36:31;5.03;;;2.10;;
66597;SDS011;57424;53.128;6.406;2023-04-24T09:39:04;5.35;;;1.98;;
66597;SDS011;57424;53.128;6.406;2023-04-24T09:41:33;3.15;;;1.98;;
66597;SDS011;57424;53.128;6.406;2023-04-24T09:46:51;3.47;;;2.05;;
66597;SDS011;57424;53.128;6.406;2023-04-24T09:49:27;4.40;;;2.10;;
66597;SDS011;57424;53.128;6.406;2023-04-24T09:52:04;6.07;;;2.20;;
66597;SDS011;57424;53.128;6.406;2023-04-24T09:54:31;4.55;;;2.33;;
66597;SDS011;57424;53.128;6.406;2023-04-24T09:56:58;6.35;;;1.83;;
66597;SDS011;57424;53.128;6.406;2023-04-24T09:59:25;4.78;;;1.83;;
66597;SDS011;57424;53.128;6.406;2023-04-24T10:01:51;4.45;;;1.80;;
66597;SDS011;57424;53.128;6.406;2023-04-24T10:06:48;4.00;;;2.30;;
66597;SDS011;57424;53.128;6.406;2023-04-24T10:09:15;6.00;;;2.40;;
66597;SDS011;57424;53.128;6.406;2023-04-24T10:11:45;3.83;;;2.10;;
66597;SDS011;57424;53.128;6.406;2023-04-24T10:14:13;3.35;;;2.00;;
66597;SDS011;57424;53.128;6.406;2023-04-24T10:16:40;2.70;;;2.20;;
66597;SDS011;57424;53.128;6.406;2023-04-24T10:19:06;8.38;;;2.22;;
66597;SDS011;57424;53.128;6.406;2023-04-24T10:21:32;3.25;;;2.00;;
66597;SDS011;57424;53.128;6.406;2023-04-24T10:23:59;3.97;;;2.08;;
66597;SDS011;57424;53.128;6.406;2023-04-24T10:26:28;2.72;;;2.05;;
66597;SDS011;57424;53.128;6.406;2023-04-24T10:28:54;4.10;;;2.10;;
66597;SDS011;57424;53.128;6.406;2023-04-24T10:31:22;7.90;;;2.05;;
66597;SDS011;57424;53.128;6.406;2023-04-24T10:33:49;4.32;;;2.17;;
66597;SDS011;57424;53.128;6.406;2023-04-24T10:36:16;3.10;;;2.00;;
66597;SDS011;57424;53.128;6.406;2023-04-24T10:38:42;4.75;;;1.80;;
66597;SDS011;57424;53.128;6.406;2023-04-24T10:41:11;5.65;;;2.22;;
66597;SDS011;57424;53.128;6.406;2023-04-24T10:43:44;3.20;;;1.92;;
66597;SDS011;57424;53.128;6.406;2023-04-24T10:46:10;3.15;;;2.00;;
66597;SDS011;57424;53.128;6.406;2023-04-24T10:48:44;3.03;;;2.10;;
66597;SDS011;57424;53.128;6.406;2023-04-24T10:51:19;3.22;;;2.20;;
66597;SDS011;57424;53.128;6.406;2023-04-24T10:56:47;2.85;;;1.95;;
66597;SDS011;57424;53.128;6.406;2023-04-24T10:59:13;6.13;;;2.20;;
66597;SDS011;57424;53.128;6.406;2023-04-24T11:01:52;2.88;;;1.90;;
66597;SDS011;57424;53.128;6.406;2023-04-24T11:04:32;2.33;;;1.95;;
66597;SDS011;57424;53.128;6.406;2023-04-24T11:06:59;4.85;;;1.90;;
66597;SDS011;57424;53.128;6.406;2023-04-24T11:09:27;4.53;;;1.77;;
66597;SDS011;57424;53.128;6.406;2023-04-24T11:12:04;4.07;;;2.00;;
66597;SDS011;57424;53.128;6.406;2023-04-24T11:17:30;3.70;;;2.03;;
66597;SDS011;57424;53.128;6.406;2023-04-24T11:20:03;2.90;;;1.80;;
66597;SDS011;57424;53.128;6.406;2023-04-24T11:22:34;3.38;;;1.98;;
66597;SDS011;57424;53.128;6.406;2023-04-24T11:25:01;3.38;;;1.88;;
66597;SDS011;57424;53.128;6.406;2023-04-24T11:27:32;2.22;;;1.80;;
66597;SDS011;57424;53.128;6.406;2023-04-24T11:30:07;3.65;;;1.88;;
66597;SDS011;57424;53.128;6.406;2023-04-24T11:35:03;1.98;;;1.70;;
66597;SDS011;57424;53.128;6.406;2023-04-24T11:37:37;3.40;;;2.00;;
66597;SDS011;57424;53.128;6.406;2023-04-24T11:40:04;2.65;;;2.10;;
66597;SDS011;57424;53.128;6.406;2023-04-24T11:42:35;4.50;;;1.95;;
66597;SDS011;57424;53.128;6.406;2023-04-24T11:45:01;2.83;;;2.00;;
66597;SDS011;57424;53.128;6.406;2023-04-24T11:47:32;2.25;;;1.60;;
66597;SDS011;57424;53.128;6.406;2023-04-24T11:49:59;3.72;;;1.75;;
66597;SDS011;57424;53.128;6.406;2023-04-24T11:52:26;3.90;;;1.80;;
66597;SDS011;57424;53.128;6.406;2023-04-24T11:54:52;3.50;;;1.90;;
66597;SDS011;57424;53.128;6.406;2023-04-24T11:57:23;3.92;;;1.73;;
66597;SDS011;57424;53.128;6.406;2023-04-24T11:59:54;2.58;;;1.92;;
66597;SDS011;57424;53.128;6.406;2023-04-24T12:02:28;3.97;;;1.90;;
66597;SDS011;57424;53.128;6.406;2023-04-24T12:04:54;2.90;;;1.85;;
66597;SDS011;57424;53.128;6.406;2023-04-24T12:07:20;7.57;;;2.00;;
66597;SDS011;57424;53.128;6.406;2023-04-24T12:09:48;2.50;;;1.67;;
66597;SDS011;57424;53.128;6.406;2023-04-24T12:14:48;7.20;;;2.65;;
66597;SDS011;57424;53.128;6.406;2023-04-24T12:17:15;3.42;;;1.70;;
66597;SDS011;57424;53.128;6.406;2023-04-24T12:19:48;3.30;;;1.80;;
66597;SDS011;57424;53.128;6.406;2023-04-24T12:22:14;3.13;;;1.90;;
66597;SDS011;57424;53.128;6.406;2023-04-24T12:24:55;4.88;;;1.83;;
66597;SDS011;57424;53.128;6.406;2023-04-24T12:27:25;2.90;;;1.75;;
66597;SDS011;57424;53.128;6.406;2023-04-24T12:29:55;4.75;;;1.90;;
66597;SDS011;57424;53.128;6.406;2023-04-24T12:32:22;2.67;;;1.70;;
66597;SDS011;57424;53.128;6.406;2023-04-24T12:34:49;2.72;;;1.73;;
66597;SDS011;57424;53.128;6.406;2023-04-24T12:37:15;3.55;;;1.73;;
66597;SDS011;57424;53.128;6.406;2023-04-24T12:39:44;1.55;;;1.45;;
66597;SDS011;57424;53.128;6.406;2023-04-24T12:42:49;2.22;;;1.60;;
66597;SDS011;57424;53.128;6.406;2023-04-24T12:45:17;3.95;;;1.63;;
66597;SDS011;57424;53.128;6.406;2023-04-24T12:47:45;2.83;;;1.50;;
66597;SDS011;57424;53.128;6.406;2023-04-24T12:50:12;5.00;;;2.03;;
66597;SDS011;57424;53.128;6.406;2023-04-24T12:52:39;4.15;;;1.75;;
66597;SDS011;57424;53.128;6.406;2023-04-24T12:55:05;4.45;;;1.70;;
66597;SDS011;57424;53.128;6.406;2023-04-24T12:57:35;2.85;;;1.70;;
66597;SDS011;57424;53.128;6.406;2023-04-24T13:00:02;2.55;;;1.45;;
66597;SDS011;57424;53.128;6.406;2023-04-24T13:02:29;2.13;;;1.60;;
66597;SDS011;57424;53.128;6.406;2023-04-24T13:07:22;3.25;;;1.73;;
66597;SDS011;57424;53.128;6.406;2023-04-24T13:09:49;1.70;;;1.60;;
66597;SDS011;57424;53.128;6.406;2023-04-24T13:12:15;4.47;;;1.52;;
66597;SDS011;57424;53.128;6.406;2023-04-24T13:14:41;5.00;;;1.90;;
66597;SDS011;57424;53.128;6.406;2023-04-24T13:17:06;1.60;;;1.30;;
66597;SDS011;57424;53.128;6.406;2023-04-24T13:19:39;1.85;;;1.42;;
66597;SDS011;57424;53.128;6.406;2023-04-24T13:22:06;3.25;;;1.70;;
66597;SDS011;57424;53.128;6.406;2023-04-24T13:24:33;1.67;;;1.20;;
66597;SDS011;57424;53.128;6.406;2023-04-24T13:26:59;1.95;;;1.27;;
66597;SDS011;57424;53.128;6.406;2023-04-24T13:29:26;1.55;;;1.20;;
66597;SDS011;57424;53.128;6.406;2023-04-24T13:31:51;3.15;;;1.95;;
66597;SDS011;57424;53.128;6.406;2023-04-24T13:34:21;2.83;;;1.38;;
66597;SDS011;57424;53.128;6.406;2023-04-24T13:36:54;3.95;;;1.58;;
66597;SDS011;57424;53.128;6.406;2023-04-24T13:39:24;2.53;;;1.40;;
66597;SDS011;57424;53.128;6.406;2023-04-24T13:41:51;2.10;;;1.23;;
66597;SDS011;57424;53.128;6.406;2023-04-24T13:44:17;5.05;;;1.50;;
66597;SDS011;57424;53.128;6.406;2023-04-24T13:46:45;2.97;;;1.30;;
66597;SDS011;57424;53.128;6.406;2023-04-24T13:49:12;2.47;;;1.40;;
66597;SDS011;57424;53.128;6.406;2023-04-24T13:51:38;2.95;;;1.30;;
66597;SDS011;57424;53.128;6.406;2023-04-24T13:54:05;2.55;;;1.40;;
66597;SDS011;57424;53.128;6.406;2023-04-24T13:56:30;2.83;;;1.10;;
66597;SDS011;57424;53.128;6.406;2023-04-24T13:58:56;4.65;;;1.35;;
66597;SDS011;57424;53.128;6.406;2023-04-24T14:01:22;1.73;;;1.23;;
66597;SDS011;57424;53.128;6.406;2023-04-24T14:03:54;3.55;;;1.50;;
66597;SDS011;57424;53.128;6.406;2023-04-24T14:06:21;3.05;;;1.58;;
66597;SDS011;57424;53.128;6.406;2023-04-24T14:08:48;3.20;;;1.30;;
66597;SDS011;57424;53.128;6.406;2023-04-24T14:11:14;4.72;;;1.60;;
66597;SDS011;57424;53.128;6.406;2023-04-24T14:13:40;1.88;;;1.30;;
66597;SDS011;57424;53.128;6.406;2023-04-24T14:16:07;2.03;;;1.23;;
66597;SDS011;57424;53.128;6.406;2023-04-24T14:18:32;1.58;;;1.20;;
66597;SDS011;57424;53.128;6.406;2023-04-24T14:20:58;2.08;;;1.05;;
66597;SDS011;57424;53.128;6.406;2023-04-24T14:23:26;2.25;;;1.40;;
66597;SDS011;57424;53.128;6.406;2023-04-24T14:25:51;3.90;;;1.65;;
66597;SDS011;57424;53.128;6.406;2023-04-24T14:28:18;2.10;;;1.10;;
66597;SDS011;57424;53.128;6.406;2023-04-24T14:30:45;2.50;;;1.40;;
66597;SDS011;57424;53.128;6.406;2023-04-24T14:33:11;3.03;;;1.35;;
66597;SDS011;57424;53.128;6.406;2023-04-24T14:35:37;2.38;;;1.25;;
66597;SDS011;57424;53.128;6.406;2023-04-24T14:38:04;1.67;;;1.00;;
66597;SDS011;57424;53.128;6.406;2023-04-24T14:40:30;3.10;;;1.60;;
66597;SDS011;57424;53.128;6.406;2023-04-24T14:42:57;3.40;;;1.45;;
66597;SDS011;57424;53.128;6.406;2023-04-24T14:45:23;2.38;;;1.30;;
66597;SDS011;57424;53.128;6.406;2023-04-24T14:47:49;3.97;;;1.33;;
66597;SDS011;57424;53.128;6.406;2023-04-24T14:50:15;3.67;;;1.30;;
66597;SDS011;57424;53.128;6.406;2023-04-24T14:52:40;3.90;;;1.38;;
66597;SDS011;57424;53.128;6.406;2023-04-24T14:55:06;2.00;;;1.33;;
66597;SDS011;57424;53.128;6.406;2023-04-24T14:57:32;3.13;;;1.10;;
66597;SDS011;57424;53.128;6.406;2023-04-24T14:59:58;2.60;;;1.40;;
66597;SDS011;57424;53.128;6.406;2023-04-24T15:02:24;4.93;;;1.23;;
66597;SDS011;57424;53.128;6.406;2023-04-24T15:04:50;3.95;;;1.10;;
66597;SDS011;57424;53.128;6.406;2023-04-24T15:07:16;3.92;;;1.25;;
66597;SDS011;57424;53.128;6.406;2023-04-24T15:09:41;3.03;;;0.98;;